createdAt,value
2023-03-04T00:00:08.165Z,0.60
2023-03-04T00:02:35.117Z,0.50
2023-03-04T00:05:03.805Z,0.50
2023-03-04T00:07:30.700Z,0.40
2023-03-04T00:09:57.819Z,0.40
2023-03-04T00:12:24.733Z,0.40
2023-03-04T00:14:51.494Z,0.40
2023-03-04T00:17:18.312Z,0.30
2023-03-04T00:19:45.236Z,0.30
2023-03-04T00:22:13.373Z,0.30
2023-03-04T00:24:40.252Z,0.30
2023-03-04T00:27:07.059Z,0.30
2023-03-04T00:29:33.857Z,0.20
2023-03-04T00:32:00.709Z,0.20
2023-03-04T00:34:27.638Z,0.20
2023-03-04T00:36:54.395Z,0.20
2023-03-04T00:39:24.365Z,0.20
2023-03-04T00:41:51.183Z,0.20
2023-03-04T00:44:17.957Z,0.10
2023-03-04T00:46:44.840Z,0.10
2023-03-04T00:49:11.713Z,0.10
2023-03-04T00:51:38.562Z,0.10
2023-03-04T00:54:05.331Z,0.00
2023-03-04T00:56:33.430Z,0.10
2023-03-04T00:59:00.230Z,0.10
2023-03-04T01:01:27.038Z,0.00
2023-03-04T01:03:53.834Z,0.00
2023-03-04T01:06:20.623Z,0.00
2023-03-04T01:08:47.538Z,0.00
2023-03-04T01:11:14.375Z,0.00
2023-03-04T01:13:42.545Z,0.00
2023-03-04T01:16:09.364Z,0.00
2023-03-04T01:18:36.124Z,0.00
2023-03-04T01:21:03.267Z,-0.10
2023-03-04T01:23:30.119Z,-0.10
2023-03-04T01:25:56.947Z,-0.10
2023-03-04T01:28:24.158Z,-0.10
2023-03-04T01:30:52.356Z,-0.20
2023-03-04T01:33:19.187Z,-0.20
2023-03-04T01:35:46.106Z,-0.10
2023-03-04T01:38:12.954Z,0.00
2023-03-04T01:40:40.029Z,0.00
2023-03-04T01:43:06.944Z,0.10
2023-03-04T01:45:35.183Z,0.20
2023-03-04T01:48:03.598Z,0.20
2023-03-04T01:50:33.595Z,0.30
2023-03-04T01:53:00.926Z,0.30
2023-03-04T01:55:28.595Z,0.30
2023-03-04T01:57:55.770Z,0.20
2023-03-04T02:00:26.599Z,0.10
2023-03-04T02:02:55.297Z,0.00
2023-03-04T02:05:23.949Z,-0.10
2023-03-04T02:07:52.046Z,-0.10
2023-03-04T02:10:19.091Z,-0.20
2023-03-04T02:12:45.957Z,-0.20
2023-03-04T02:15:12.888Z,-0.20
2023-03-04T02:17:39.749Z,-0.20
2023-03-04T02:20:15.587Z,-0.20
2023-03-04T02:22:51.681Z,-0.20
2023-03-04T02:25:24.030Z,-0.20
2023-03-04T02:27:52.325Z,-0.30
2023-03-04T02:30:23.459Z,-0.30
2023-03-04T02:32:50.355Z,-0.20
2023-03-04T02:35:18.519Z,-0.20
2023-03-04T02:37:45.406Z,-0.20
2023-03-04T02:40:18.035Z,-0.20
2023-03-04T02:42:45.078Z,-0.20
2023-03-04T02:45:39.637Z,-0.20
2023-03-04T02:48:07.228Z,-0.20
2023-03-04T02:50:37.729Z,-0.30
2023-03-04T02:53:04.921Z,-0.30
2023-03-04T02:55:31.769Z,-0.30
2023-03-04T02:57:58.846Z,-0.30
2023-03-04T03:00:26.219Z,-0.30
2023-03-04T03:02:54.647Z,-0.40
2023-03-04T03:05:21.520Z,-0.40
2023-03-04T03:07:48.308Z,-0.30
2023-03-04T03:10:15.122Z,-0.30
2023-03-04T03:12:42.046Z,-0.40
2023-03-04T03:15:09.597Z,-0.40
2023-03-04T03:17:36.345Z,-0.40
2023-03-04T03:20:05.658Z,-0.40
2023-03-04T03:22:32.398Z,-0.40
2023-03-04T03:24:59.189Z,-0.40
2023-03-04T03:27:26.008Z,-0.40
2023-03-04T03:29:52.781Z,-0.40
2023-03-04T03:32:19.660Z,-0.50
2023-03-04T03:34:46.440Z,-0.50
2023-03-04T03:37:14.596Z,-0.50
2023-03-04T03:39:41.424Z,-0.60
2023-03-04T03:42:08.243Z,-0.60
2023-03-04T03:44:35.003Z,-0.60
2023-03-04T03:47:01.971Z,-0.60
2023-03-04T03:49:28.760Z,-0.60
2023-03-04T03:51:55.792Z,-0.60
2023-03-04T03:54:23.878Z,-0.60
2023-03-04T03:56:50.605Z,-0.60
2023-03-04T03:59:17.397Z,-0.60
2023-03-04T04:01:44.161Z,-0.60
2023-03-04T04:04:10.969Z,-0.60
2023-03-04T04:06:37.880Z,-0.70
2023-03-04T04:09:04.778Z,-0.70
2023-03-04T04:11:32.873Z,-0.70
2023-03-04T04:13:59.621Z,-0.70
2023-03-04T04:16:26.476Z,-0.70
2023-03-04T04:18:53.270Z,-0.70
2023-03-04T04:21:20.396Z,-0.70
2023-03-04T04:23:47.202Z,-0.70
2023-03-04T04:26:13.978Z,-0.80
2023-03-04T04:28:42.111Z,-0.80
2023-03-04T04:31:09.539Z,-0.80
2023-03-04T04:33:36.882Z,-0.80
2023-03-04T04:36:04.147Z,-0.90
2023-03-04T04:38:31.020Z,-0.90
2023-03-04T04:40:58.118Z,-0.90
2023-03-04T04:43:25.159Z,-0.90
2023-03-04T04:45:53.334Z,-1.00
2023-03-04T04:48:20.137Z,-1.00
2023-03-04T04:50:46.974Z,-1.00
2023-03-04T04:53:13.763Z,-1.10
2023-03-04T04:55:40.518Z,-1.10
2023-03-04T04:58:07.605Z,-1.10
2023-03-04T05:00:34.460Z,-1.10
2023-03-04T05:03:02.689Z,-1.10
2023-03-04T05:05:29.446Z,-1.10
2023-03-04T05:07:56.281Z,-1.20
2023-03-04T05:10:23.038Z,-1.20
2023-03-04T05:12:49.812Z,-1.30
2023-03-04T05:15:17.029Z,-1.30
2023-03-04T05:17:43.822Z,-1.30
2023-03-04T05:20:12.905Z,-1.30
2023-03-04T05:22:39.747Z,-1.30
2023-03-04T05:25:06.882Z,-1.30
2023-03-04T05:27:33.928Z,-1.30
2023-03-04T05:30:00.690Z,-1.30
2023-03-04T05:32:28.262Z,-1.30
2023-03-04T05:34:55.151Z,-1.30
2023-03-04T05:37:23.303Z,-1.30
2023-03-04T05:39:50.067Z,-1.30
2023-03-04T05:42:16.861Z,-1.30
2023-03-04T05:44:43.618Z,-1.30
2023-03-04T05:47:10.361Z,-1.40
2023-03-04T05:49:37.136Z,-1.30
2023-03-04T05:52:03.931Z,-1.40
2023-03-04T05:54:32.126Z,-1.30
2023-03-04T05:56:58.904Z,-1.30
2023-03-04T05:59:25.836Z,-1.30
2023-03-04T06:01:52.623Z,-1.30
2023-03-04T06:04:19.634Z,-1.30
2023-03-04T06:06:46.401Z,-1.30
2023-03-04T06:09:13.402Z,-1.30
2023-03-04T06:11:41.949Z,-1.30
2023-03-04T06:14:08.797Z,-1.30
2023-03-04T06:16:35.636Z,-1.20
2023-03-04T06:19:02.451Z,-1.20
2023-03-04T06:21:29.258Z,-1.20
2023-03-04T06:23:56.034Z,-1.10
2023-03-04T06:26:22.863Z,-1.10
2023-03-04T06:28:50.988Z,-1.10
2023-03-04T06:31:17.950Z,-1.10
2023-03-04T06:33:44.774Z,-1.00
2023-03-04T06:36:11.553Z,-1.00
2023-03-04T06:38:38.344Z,-1.00
2023-03-04T06:41:08.869Z,-0.90
2023-03-04T06:43:35.723Z,-0.80
2023-03-04T06:46:03.983Z,-0.80
2023-03-04T06:48:30.810Z,-0.70
2023-03-04T06:50:57.604Z,-0.70
2023-03-04T06:53:24.451Z,-0.70
2023-03-04T06:55:52.419Z,-0.60
2023-03-04T06:58:19.245Z,-0.50
2023-03-04T07:00:46.073Z,-0.50
2023-03-04T07:03:14.232Z,-0.40
2023-03-04T07:05:42.107Z,-0.40
2023-03-04T07:08:08.977Z,-0.30
2023-03-04T07:10:36.025Z,-0.30
2023-03-04T07:13:03.126Z,-0.20
2023-03-04T07:15:30.035Z,-0.20
2023-03-04T07:17:56.873Z,-0.10
2023-03-04T07:20:25.148Z,0.00
2023-03-04T07:22:51.927Z,0.10
2023-03-04T07:25:18.906Z,0.20
2023-03-04T07:27:45.701Z,0.30
2023-03-04T07:30:13.207Z,0.40
2023-03-04T07:32:40.094Z,0.50
2023-03-04T07:35:07.849Z,0.60
2023-03-04T07:37:36.103Z,0.70
2023-03-04T07:40:03.187Z,0.70
2023-03-04T07:42:29.984Z,0.80
2023-03-04T07:44:56.792Z,0.90
2023-03-04T07:47:23.597Z,1.00
2023-03-04T07:49:50.336Z,1.10
2023-03-04T07:52:17.152Z,1.20
2023-03-04T07:54:45.396Z,1.30
2023-03-04T07:57:12.133Z,1.30
2023-03-04T07:59:39.378Z,1.40
2023-03-04T08:02:06.747Z,1.50
2023-03-04T08:04:33.567Z,1.70
2023-03-04T08:07:00.783Z,1.70
2023-03-04T08:09:27.570Z,1.80
2023-03-04T08:11:55.715Z,1.80
2023-03-04T08:14:22.549Z,1.90
2023-03-04T08:16:49.362Z,1.90
2023-03-04T08:19:16.155Z,2.00
2023-03-04T08:21:42.938Z,2.10
2023-03-04T08:24:11.021Z,2.20
2023-03-04T08:26:41.010Z,2.30
2023-03-04T08:29:11.392Z,2.40
2023-03-04T08:31:38.322Z,2.50
2023-03-04T08:34:06.863Z,2.50
2023-03-04T08:36:34.153Z,2.50
2023-03-04T08:39:00.904Z,2.50
2023-03-04T08:41:27.853Z,2.40
2023-03-04T08:43:54.773Z,2.40
2023-03-04T08:46:22.979Z,2.40
2023-03-04T08:48:49.781Z,2.50
2023-03-04T08:51:16.773Z,2.60
2023-03-04T08:53:44.015Z,2.60
2023-03-04T08:56:11.724Z,2.60
2023-03-04T08:58:38.633Z,2.60
2023-03-04T09:01:08.375Z,2.60
2023-03-04T09:03:36.602Z,2.70
2023-03-04T09:06:04.643Z,2.80
2023-03-04T09:08:32.134Z,2.80
2023-03-04T09:10:59.150Z,2.90
2023-03-04T09:13:26.527Z,3.00
2023-03-04T09:15:53.468Z,3.10
2023-03-04T09:18:22.612Z,3.10
2023-03-04T09:20:51.536Z,3.20
2023-03-04T09:23:19.657Z,3.20
2023-03-04T09:25:47.342Z,3.30
2023-03-04T09:28:15.177Z,3.40
2023-03-04T09:30:42.401Z,3.50
2023-03-04T09:33:09.337Z,3.50
2023-03-04T09:35:36.374Z,3.50
2023-03-04T09:38:04.678Z,3.50
2023-03-04T09:40:38.906Z,3.60
2023-03-04T09:43:10.425Z,3.70
2023-03-04T09:45:41.329Z,3.70
2023-03-04T09:48:12.896Z,3.90
2023-03-04T09:50:49.246Z,3.90
2023-03-04T09:53:22.868Z,4.00
2023-03-04T09:55:52.553Z,4.10
2023-03-04T09:58:33.783Z,4.10
2023-03-04T10:01:08.253Z,4.10
2023-03-04T10:03:43.524Z,4.20
2023-03-04T10:06:14.909Z,4.20
2023-03-04T10:08:50.032Z,4.30
2023-03-04T10:11:20.440Z,4.40
2023-03-04T10:14:00.239Z,4.40
2023-03-04T10:16:32.846Z,4.50
2023-03-04T10:19:11.019Z,4.50
2023-03-04T10:21:42.658Z,4.60
2023-03-04T10:24:12.793Z,4.70
2023-03-04T10:26:41.091Z,4.80
2023-03-04T10:29:09.694Z,4.80
2023-03-04T10:31:37.946Z,4.80
2023-03-04T10:34:05.945Z,4.80
2023-03-04T10:36:49.719Z,4.80
2023-03-04T10:39:22.784Z,4.90
2023-03-04T10:41:57.455Z,5.00
2023-03-04T10:44:25.054Z,5.00
2023-03-04T10:46:55.034Z,5.10
2023-03-04T10:49:21.974Z,5.20
2023-03-04T10:51:51.235Z,5.30
2023-03-04T10:54:27.967Z,5.40
2023-03-04T10:57:00.508Z,5.60
2023-03-04T10:59:45.890Z,5.60
2023-03-04T11:02:22.829Z,5.80
2023-03-04T11:04:51.837Z,5.90
2023-03-04T11:07:19.103Z,6.00
2023-03-04T11:09:47.225Z,6.10
2023-03-04T11:12:16.226Z,6.10
2023-03-04T11:14:46.555Z,6.10
2023-03-04T11:17:22.688Z,6.00
2023-03-04T11:19:55.734Z,5.90
2023-03-04T11:22:24.279Z,6.00
2023-03-04T11:24:58.233Z,6.10
2023-03-04T11:27:37.793Z,6.10
2023-03-04T11:30:24.730Z,6.20
2023-03-04T11:32:55.796Z,6.20
2023-03-04T11:35:26.965Z,6.20
2023-03-04T11:38:01.838Z,6.30
2023-03-04T11:40:38.955Z,6.50
2023-03-04T11:43:11.449Z,6.80
2023-03-04T11:46:00.355Z,6.90
2023-03-04T11:48:42.423Z,7.10
2023-03-04T11:51:15.672Z,7.40
2023-03-04T11:53:53.378Z,7.40
2023-03-04T11:56:36.421Z,7.40
2023-03-04T11:59:35.317Z,7.30
2023-03-04T12:02:13.821Z,7.20
2023-03-04T12:05:17.364Z,7.10
2023-03-04T12:08:07.087Z,7.10
2023-03-04T12:10:39.864Z,7.20
2023-03-04T12:13:37.583Z,7.30
2023-03-04T12:16:18.328Z,7.40
2023-03-04T12:19:03.160Z,7.50
2023-03-04T12:21:52.423Z,7.50
2023-03-04T12:24:33.142Z,7.40
2023-03-04T12:27:13.890Z,7.40
2023-03-04T12:29:48.725Z,7.50
2023-03-04T12:32:23.668Z,7.60
2023-03-04T12:35:08.112Z,7.70
2023-03-04T12:37:40.208Z,7.90
2023-03-04T12:40:31.375Z,8.00
2023-03-04T12:43:16.034Z,7.80
2023-03-04T12:45:52.149Z,7.60
2023-03-04T12:48:29.633Z,7.60
2023-03-04T12:51:13.404Z,7.70
2023-03-04T12:53:49.087Z,7.90
2023-03-04T12:56:25.078Z,8.20
2023-03-04T12:58:53.000Z,8.50
2023-03-04T13:01:26.217Z,8.80
2023-03-04T13:04:00.474Z,9.50
2023-03-04T13:06:38.624Z,10.30
2023-03-04T13:09:16.019Z,10.40
2023-03-04T13:11:52.630Z,10.30
2023-03-04T13:14:34.183Z,10.10
2023-03-04T13:17:21.926Z,10.80
2023-03-04T13:19:52.496Z,11.60
2023-03-04T13:22:44.806Z,12.20
2023-03-04T13:25:35.778Z,12.80
2023-03-04T13:28:26.347Z,12.90
2023-03-04T13:31:18.526Z,12.40
2023-03-04T13:33:56.464Z,12.20
2023-03-04T13:36:43.042Z,12.30
2023-03-04T13:39:26.425Z,12.50
2023-03-04T13:41:54.363Z,12.70
2023-03-04T13:44:56.007Z,13.40
2023-03-04T13:47:49.602Z,13.90
2023-03-04T13:50:30.545Z,14.00
2023-03-04T13:53:18.212Z,14.30
2023-03-04T13:56:01.604Z,14.60
2023-03-04T13:58:28.427Z,14.80
2023-03-04T14:00:56.001Z,14.90
2023-03-04T14:03:25.679Z,15.20
2023-03-04T14:06:18.212Z,15.50
2023-03-04T14:08:45.767Z,15.40
2023-03-04T14:11:15.382Z,15.30
2023-03-04T14:13:43.120Z,15.80
2023-03-04T14:16:10.488Z,16.30
2023-03-04T14:18:37.321Z,16.50
2023-03-04T14:21:04.714Z,16.20
2023-03-04T14:23:35.403Z,15.50
2023-03-04T14:26:11.468Z,15.50
2023-03-04T14:28:46.815Z,15.60
2023-03-04T14:31:19.785Z,15.80
2023-03-04T14:33:49.144Z,15.80
2023-03-04T14:36:19.664Z,16.00
2023-03-04T14:38:53.501Z,16.10
2023-03-04T14:41:25.967Z,16.10
2023-03-04T14:43:59.688Z,16.20
2023-03-04T14:46:31.816Z,16.50
2023-03-04T14:48:59.292Z,16.90
2023-03-04T14:51:31.574Z,16.90
2023-03-04T14:53:59.871Z,16.50
2023-03-04T14:56:31.178Z,16.30
2023-03-04T14:58:59.165Z,16.10
2023-03-04T15:01:32.265Z,15.90
2023-03-04T15:04:02.542Z,16.00
2023-03-04T15:06:31.151Z,15.40
2023-03-04T15:09:02.040Z,14.80
2023-03-04T15:11:31.667Z,14.70
2023-03-04T15:13:59.744Z,14.90
2023-03-04T15:16:28.494Z,14.90
2023-03-04T15:18:58.530Z,14.40
2023-03-04T15:21:32.528Z,14.10
2023-03-04T15:24:00.769Z,14.10
2023-03-04T15:26:27.545Z,14.30
2023-03-04T15:28:54.390Z,14.80
2023-03-04T15:31:23.666Z,14.40
2023-03-04T15:33:50.734Z,13.80
2023-03-04T15:36:19.949Z,13.40
2023-03-04T15:38:49.905Z,13.40
2023-03-04T15:41:22.485Z,13.30
2023-03-04T15:43:49.394Z,13.30
2023-03-04T15:46:17.715Z,13.00
2023-03-04T15:48:45.299Z,12.80
2023-03-04T15:51:15.028Z,12.70
2023-03-04T15:53:45.865Z,12.60
2023-03-04T15:56:14.978Z,12.40
2023-03-04T15:58:44.022Z,12.00
2023-03-04T16:01:16.333Z,11.30
2023-03-04T16:03:43.346Z,10.50
2023-03-04T16:06:11.577Z,10.20
2023-03-04T16:08:39.347Z,9.60
2023-03-04T16:11:06.360Z,9.40
2023-03-04T16:13:33.286Z,9.20
2023-03-04T16:16:01.524Z,8.90
2023-03-04T16:18:28.347Z,8.40
2023-03-04T16:20:55.292Z,8.20
2023-03-04T16:23:24.115Z,7.90
2023-03-04T16:25:54.246Z,7.60
2023-03-04T16:28:21.280Z,7.40
2023-03-04T16:30:48.524Z,7.20
2023-03-04T16:33:16.815Z,6.80
2023-03-04T16:35:44.380Z,6.60
2023-03-04T16:38:24.397Z,6.30
2023-03-04T16:40:51.387Z,5.80
2023-03-04T16:43:18.337Z,5.30
2023-03-04T16:45:45.142Z,4.90
2023-03-04T16:48:11.920Z,4.40
2023-03-04T16:50:40.417Z,4.00
2023-03-04T16:53:26.673Z,3.60
2023-03-04T16:55:53.700Z,3.20
2023-03-04T16:58:20.552Z,2.90
2023-03-04T17:00:47.323Z,2.60
2023-03-04T17:03:14.119Z,2.40
2023-03-04T17:05:42.268Z,2.30
2023-03-04T17:08:09.031Z,2.30
2023-03-04T17:10:35.763Z,2.30
2023-03-04T17:13:02.519Z,2.30
2023-03-04T17:15:29.367Z,2.30
2023-03-04T17:17:56.140Z,2.30
2023-03-04T17:20:22.942Z,2.20
2023-03-04T17:22:51.164Z,2.10
2023-03-04T17:25:18.071Z,2.00
2023-03-04T17:27:44.844Z,2.00
2023-03-04T17:30:13.068Z,2.00
2023-03-04T17:32:40.525Z,2.00
2023-03-04T17:35:08.475Z,2.00
2023-03-04T17:37:35.721Z,1.90
2023-03-04T17:40:04.856Z,1.80
2023-03-04T17:42:31.851Z,1.70
2023-03-04T17:44:58.645Z,1.70
2023-03-04T17:47:25.785Z,1.60
2023-03-04T17:49:52.632Z,1.50
2023-03-04T17:52:19.376Z,1.50
2023-03-04T17:54:46.500Z,1.50
2023-03-04T17:57:14.881Z,1.60
2023-03-04T17:59:41.741Z,1.60
2023-03-04T18:02:13.654Z,1.60
2023-03-04T18:04:40.501Z,1.60
2023-03-04T18:07:07.600Z,1.60
2023-03-04T18:09:34.535Z,1.60
2023-03-04T18:12:01.427Z,1.50
2023-03-04T18:14:29.571Z,1.50
2023-03-04T18:16:56.572Z,1.50
2023-03-04T18:19:23.368Z,1.40
2023-03-04T18:21:50.219Z,1.30
2023-03-04T18:24:16.954Z,1.30
2023-03-04T18:26:43.738Z,1.30
2023-03-04T18:29:10.506Z,1.30
2023-03-04T18:31:38.685Z,1.30
2023-03-04T18:34:05.715Z,1.30
2023-03-04T18:36:33.488Z,1.20
2023-03-04T18:39:00.274Z,1.20
2023-03-04T18:41:27.885Z,1.30
2023-03-04T18:43:55.175Z,1.30
2023-03-04T18:46:34.810Z,1.20
2023-03-04T18:49:06.175Z,1.20
2023-03-04T18:51:33.451Z,1.20
2023-03-04T18:54:00.214Z,1.20
2023-03-04T18:56:30.766Z,1.20
2023-03-04T18:58:59.207Z,1.20
2023-03-04T19:01:26.678Z,1.20
2023-03-04T19:03:53.708Z,1.10
2023-03-04T19:06:23.608Z,1.00
2023-03-04T19:08:51.765Z,0.80
2023-03-04T19:11:18.586Z,0.70
2023-03-04T19:13:45.365Z,0.60
2023-03-04T19:16:12.150Z,0.60
2023-03-04T19:18:38.953Z,0.60
2023-03-04T19:21:06.317Z,0.60
2023-03-04T19:23:34.895Z,0.60
2023-03-04T19:26:01.817Z,0.60
2023-03-04T19:28:28.628Z,0.70
2023-03-04T19:30:55.436Z,0.70
2023-03-04T19:33:22.292Z,0.70
2023-03-04T19:35:49.254Z,0.70
2023-03-04T19:38:16.071Z,0.80
2023-03-04T19:40:44.530Z,0.70
2023-03-04T19:43:11.334Z,0.60
2023-03-04T19:45:38.346Z,0.60
2023-03-04T19:48:05.642Z,0.50
2023-03-04T19:50:32.634Z,0.50
2023-03-04T19:52:59.424Z,0.50
2023-03-04T19:55:26.371Z,0.50
2023-03-04T19:57:54.552Z,0.50
2023-03-04T20:00:23.893Z,0.50
2023-03-04T20:02:51.077Z,0.40
2023-03-04T20:05:18.057Z,0.40
2023-03-04T20:07:44.811Z,0.40
2023-03-04T20:10:12.707Z,0.40
2023-03-04T20:12:39.693Z,0.40
2023-03-04T20:15:09.335Z,0.40
2023-03-04T20:17:36.234Z,0.40
2023-03-04T20:20:03.385Z,0.40
2023-03-04T20:22:30.215Z,0.30
2023-03-04T20:24:56.977Z,0.30
2023-03-04T20:27:23.796Z,0.40
2023-03-04T20:29:50.788Z,0.30
2023-03-04T20:32:19.016Z,0.20
2023-03-04T20:34:45.873Z,0.20
2023-03-04T20:37:12.769Z,0.20
2023-03-04T20:39:39.629Z,0.20
2023-03-04T20:42:06.533Z,0.20
2023-03-04T20:44:33.458Z,0.10
2023-03-04T20:47:00.264Z,0.00
2023-03-04T20:49:28.896Z,0.00
2023-03-04T20:51:57.688Z,0.10
2023-03-04T20:54:24.499Z,0.10
2023-03-04T20:56:51.380Z,0.20
2023-03-04T20:59:18.421Z,0.20
2023-03-04T21:01:46.224Z,0.20
2023-03-04T21:04:13.212Z,0.20
2023-03-04T21:06:41.431Z,0.20
2023-03-04T21:09:11.429Z,0.20
2023-03-04T21:11:38.749Z,0.20
2023-03-04T21:14:06.641Z,0.20
2023-03-04T21:16:33.897Z,0.20
2023-03-04T21:19:00.686Z,0.20
2023-03-04T21:21:29.307Z,0.10
2023-03-04T21:23:58.919Z,0.00
2023-03-04T21:26:26.311Z,0.00
2023-03-04T21:28:53.812Z,0.00
2023-03-04T21:31:23.871Z,0.00
2023-03-04T21:33:52.659Z,0.00
2023-03-04T21:36:19.613Z,0.00
2023-03-04T21:38:46.678Z,0.00
2023-03-04T21:41:15.702Z,0.00
2023-03-04T21:43:43.155Z,0.00
2023-03-04T21:46:10.428Z,0.00
2023-03-04T21:48:37.322Z,0.00
2023-03-04T21:51:09.573Z,0.00
2023-03-04T21:53:36.755Z,0.00
2023-03-04T21:56:07.217Z,-0.10
2023-03-04T21:58:35.489Z,-0.10
2023-03-04T22:01:09.662Z,-0.10
2023-03-04T22:03:36.514Z,-0.10
2023-03-04T22:06:04.591Z,-0.10
2023-03-04T22:08:31.481Z,-0.10
2023-03-04T22:11:01.999Z,0.00
2023-03-04T22:13:28.798Z,0.00
2023-03-04T22:15:58.277Z,0.00
2023-03-04T22:18:25.493Z,0.00
2023-03-04T22:20:52.349Z,0.00
2023-03-04T22:23:19.468Z,0.00
2023-03-04T22:25:46.571Z,0.00
2023-03-04T22:28:15.748Z,0.00
2023-03-04T22:30:42.525Z,0.00
2023-03-04T22:33:11.987Z,0.00
2023-03-04T22:35:40.187Z,0.00
2023-03-04T22:38:07.081Z,0.00
2023-03-04T22:40:36.084Z,-0.10
2023-03-04T22:43:03.055Z,-0.10
2023-03-04T22:45:34.043Z,-0.10
2023-03-04T22:48:03.777Z,-0.10
2023-03-04T22:50:34.631Z,-0.10
2023-03-04T22:53:03.229Z,0.00
2023-03-04T22:55:30.109Z,-0.10
2023-03-04T22:57:57.139Z,-0.10
2023-03-04T23:00:26.468Z,0.00
2023-03-04T23:02:54.054Z,0.00
2023-03-04T23:05:21.490Z,0.00
2023-03-04T23:07:51.054Z,0.00
2023-03-04T23:10:20.062Z,0.10
2023-03-04T23:12:46.822Z,0.10
2023-03-04T23:15:14.281Z,0.10
2023-03-04T23:17:41.204Z,0.10
2023-03-04T23:20:11.487Z,0.10
2023-03-04T23:22:38.323Z,0.20
2023-03-04T23:25:07.507Z,0.10
2023-03-04T23:27:34.354Z,0.20
2023-03-04T23:30:01.490Z,0.20
2023-03-04T23:32:28.401Z,0.30
2023-03-04T23:34:55.278Z,0.30
2023-03-04T23:37:23.330Z,0.30
2023-03-04T23:39:50.242Z,0.30
2023-03-04T23:42:18.335Z,0.30
2023-03-04T23:44:45.048Z,0.30
2023-03-04T23:47:11.792Z,0.30
2023-03-04T23:49:38.914Z,0.30
2023-03-04T23:52:06.474Z,0.20
2023-03-04T23:54:33.204Z,0.20
2023-03-04T23:57:00.762Z,0.20
2023-03-04T23:59:29.525Z,0.10
